sensor_id;sensor_type;location;lat;lon;timestamp;P1;durP1;ratioP1;P2;durP2;ratioP2
13114;SDS011;6623;52.120;8.660;2022-12-18T00:01:27;11.13;;;7.60;;
13114;SDS011;6623;52.120;8.660;2022-12-18T00:04:01;12.30;;;7.30;;
13114;SDS011;6623;52.120;8.660;2022-12-18T00:06:34;12.18;;;7.75;;
13114;SDS011;6623;52.120;8.660;2022-12-18T00:09:01;10.07;;;6.82;;
13114;SDS011;6623;52.120;8.660;2022-12-18T00:11:31;11.25;;;7.20;;
13114;SDS011;6623;52.120;8.660;2022-12-18T00:13:57;10.60;;;6.63;;
13114;SDS011;6623;52.120;8.660;2022-12-18T00:16:30;14.52;;;7.50;;
13114;SDS011;6623;52.120;8.660;2022-12-18T00:19:02;11.45;;;7.13;;
13114;SDS011;6623;52.120;8.660;2022-12-18T00:21:28;10.25;;;6.90;;
13114;SDS011;6623;52.120;8.660;2022-12-18T00:24:04;11.10;;;7.45;;
13114;SDS011;6623;52.120;8.660;2022-12-18T00:26:30;12.27;;;7.38;;
13114;SDS011;6623;52.120;8.660;2022-12-18T00:28:58;10.45;;;6.93;;
13114;SDS011;6623;52.120;8.660;2022-12-18T00:31:36;10.90;;;7.18;;
13114;SDS011;6623;52.120;8.660;2022-12-18T00:34:03;11.52;;;7.13;;
13114;SDS011;6623;52.120;8.660;2022-12-18T00:36:40;11.52;;;7.35;;
13114;SDS011;6623;52.120;8.660;2022-12-18T00:39:06;10.85;;;6.97;;
13114;SDS011;6623;52.120;8.660;2022-12-18T00:41:40;11.50;;;7.43;;
13114;SDS011;6623;52.120;8.660;2022-12-18T00:44:24;10.60;;;6.78;;
13114;SDS011;6623;52.120;8.660;2022-12-18T00:46:50;11.10;;;6.07;;
13114;SDS011;6623;52.120;8.660;2022-12-18T00:49:17;10.23;;;6.50;;
13114;SDS011;6623;52.120;8.660;2022-12-18T00:52:04;9.43;;;6.50;;
13114;SDS011;6623;52.120;8.660;2022-12-18T00:54:30;9.57;;;6.38;;
13114;SDS011;6623;52.120;8.660;2022-12-18T00:57:08;9.80;;;6.73;;
13114;SDS011;6623;52.120;8.660;2022-12-18T00:59:33;10.40;;;6.55;;
13114;SDS011;6623;52.120;8.660;2022-12-18T01:01:59;9.33;;;6.60;;
13114;SDS011;6623;52.120;8.660;2022-12-18T01:04:24;9.47;;;6.80;;
13114;SDS011;6623;52.120;8.660;2022-12-18T01:06:50;9.13;;;6.43;;
13114;SDS011;6623;52.120;8.660;2022-12-18T01:09:27;9.15;;;6.22;;
13114;SDS011;6623;52.120;8.660;2022-12-18T01:11:53;10.87;;;6.87;;
13114;SDS011;6623;52.120;8.660;2022-12-18T01:14:19;9.27;;;6.47;;
13114;SDS011;6623;52.120;8.660;2022-12-18T01:16:47;9.93;;;6.60;;
13114;SDS011;6623;52.120;8.660;2022-12-18T01:19:13;10.02;;;6.63;;
13114;SDS011;6623;52.120;8.660;2022-12-18T01:21:38;10.37;;;6.87;;
13114;SDS011;6623;52.120;8.660;2022-12-18T01:24:04;9.00;;;6.40;;
13114;SDS011;6623;52.120;8.660;2022-12-18T01:26:55;11.35;;;6.38;;
13114;SDS011;6623;52.120;8.660;2022-12-18T01:29:25;9.20;;;6.68;;
13114;SDS011;6623;52.120;8.660;2022-12-18T01:31:56;11.48;;;6.45;;
13114;SDS011;6623;52.120;8.660;2022-12-18T01:34:25;10.10;;;6.68;;
13114;SDS011;6623;52.120;8.660;2022-12-18T01:36:51;8.55;;;6.45;;
13114;SDS011;6623;52.120;8.660;2022-12-18T01:39:26;9.75;;;6.72;;
13114;SDS011;6623;52.120;8.660;2022-12-18T01:41:51;11.27;;;6.68;;
13114;SDS011;6623;52.120;8.660;2022-12-18T01:47:46;9.75;;;6.65;;
13114;SDS011;6623;52.120;8.660;2022-12-18T01:50:22;11.70;;;6.57;;
13114;SDS011;6623;52.120;8.660;2022-12-18T01:53:17;9.32;;;6.03;;
13114;SDS011;6623;52.120;8.660;2022-12-18T01:55:46;10.98;;;6.38;;
13114;SDS011;6623;52.120;8.660;2022-12-18T01:59:02;9.75;;;6.88;;
13114;SDS011;6623;52.120;8.660;2022-12-18T02:01:09;8.65;;;5.90;;
13114;SDS011;6623;52.120;8.660;2022-12-18T02:03:40;9.90;;;6.90;;
13114;SDS011;6623;52.120;8.660;2022-12-18T02:06:10;8.68;;;6.25;;
13114;SDS011;6623;52.120;8.660;2022-12-18T02:11:39;9.55;;;6.30;;
13114;SDS011;6623;52.120;8.660;2022-12-18T02:17:47;12.23;;;7.00;;
13114;SDS011;6623;52.120;8.660;2022-12-18T02:20:23;11.25;;;6.85;;
13114;SDS011;6623;52.120;8.660;2022-12-18T02:28:58;10.98;;;7.22;;
13114;SDS011;6623;52.120;8.660;2022-12-18T02:31:32;11.45;;;7.55;;
13114;SDS011;6623;52.120;8.660;2022-12-18T02:34:02;9.82;;;6.90;;
13114;SDS011;6623;52.120;8.660;2022-12-18T02:36:30;10.35;;;6.70;;
13114;SDS011;6623;52.120;8.660;2022-12-18T02:39:02;11.40;;;7.35;;
13114;SDS011;6623;52.120;8.660;2022-12-18T02:41:32;10.73;;;6.97;;
13114;SDS011;6623;52.120;8.660;2022-12-18T02:43:59;12.38;;;7.43;;
13114;SDS011;6623;52.120;8.660;2022-12-18T02:46:45;11.85;;;7.63;;
13114;SDS011;6623;52.120;8.660;2022-12-18T02:49:26;12.90;;;7.20;;
13114;SDS011;6623;52.120;8.660;2022-12-18T02:52:00;13.00;;;7.20;;
13114;SDS011;6623;52.120;8.660;2022-12-18T02:57:36;9.40;;;7.28;;
13114;SDS011;6623;52.120;8.660;2022-12-18T03:00:28;11.82;;;6.95;;
13114;SDS011;6623;52.120;8.660;2022-12-18T03:03:16;11.75;;;7.22;;
13114;SDS011;6623;52.120;8.660;2022-12-18T03:05:50;14.60;;;8.10;;
13114;SDS011;6623;52.120;8.660;2022-12-18T03:08:38;13.60;;;8.55;;
13114;SDS011;6623;52.120;8.660;2022-12-18T03:11:11;12.25;;;7.97;;
13114;SDS011;6623;52.120;8.660;2022-12-18T03:13:45;14.65;;;8.93;;
13114;SDS011;6623;52.120;8.660;2022-12-18T03:16:23;14.77;;;9.00;;
13114;SDS011;6623;52.120;8.660;2022-12-18T03:18:56;13.65;;;9.48;;
13114;SDS011;6623;52.120;8.660;2022-12-18T03:21:27;14.57;;;10.05;;
13114;SDS011;6623;52.120;8.660;2022-12-18T03:23:57;19.27;;;10.85;;
13114;SDS011;6623;52.120;8.660;2022-12-18T03:26:23;18.67;;;12.55;;
13114;SDS011;6623;52.120;8.660;2022-12-18T03:28:55;15.73;;;11.20;;
13114;SDS011;6623;52.120;8.660;2022-12-18T03:31:24;16.15;;;11.07;;
13114;SDS011;6623;52.120;8.660;2022-12-18T03:33:54;18.45;;;12.27;;
13114;SDS011;6623;52.120;8.660;2022-12-18T03:36:24;18.83;;;11.80;;
13114;SDS011;6623;52.120;8.660;2022-12-18T03:38:51;16.15;;;11.07;;
13114;SDS011;6623;52.120;8.660;2022-12-18T03:41:33;17.10;;;11.73;;
13114;SDS011;6623;52.120;8.660;2022-12-18T03:46:54;15.30;;;11.45;;
13114;SDS011;6623;52.120;8.660;2022-12-18T03:52:36;19.85;;;12.18;;
13114;SDS011;6623;52.120;8.660;2022-12-18T03:55:07;18.02;;;11.55;;
13114;SDS011;6623;52.120;8.660;2022-12-18T03:57:35;18.92;;;11.38;;
13114;SDS011;6623;52.120;8.660;2022-12-18T04:00:09;18.38;;;11.35;;
13114;SDS011;6623;52.120;8.660;2022-12-18T04:02:42;17.02;;;11.15;;
13114;SDS011;6623;52.120;8.660;2022-12-18T04:05:11;17.65;;;10.95;;
13114;SDS011;6623;52.120;8.660;2022-12-18T04:07:38;15.38;;;11.65;;
13114;SDS011;6623;52.120;8.660;2022-12-18T04:10:05;19.38;;;11.73;;
13114;SDS011;6623;52.120;8.660;2022-12-18T04:12:32;19.75;;;11.77;;
13114;SDS011;6623;52.120;8.660;2022-12-18T04:15:00;16.27;;;11.30;;
13114;SDS011;6623;52.120;8.660;2022-12-18T04:17:25;16.33;;;11.37;;
13114;SDS011;6623;52.120;8.660;2022-12-18T04:19:51;17.37;;;11.87;;
13114;SDS011;6623;52.120;8.660;2022-12-18T04:22:20;18.27;;;11.80;;
13114;SDS011;6623;52.120;8.660;2022-12-18T04:25:12;19.75;;;12.48;;
13114;SDS011;6623;52.120;8.660;2022-12-18T04:27:47;19.90;;;12.30;;
13114;SDS011;6623;52.120;8.660;2022-12-18T04:30:12;19.17;;;12.15;;
13114;SDS011;6623;52.120;8.660;2022-12-18T04:32:38;18.80;;;13.10;;
13114;SDS011;6623;52.120;8.660;2022-12-18T04:35:09;19.37;;;11.73;;
13114;SDS011;6623;52.120;8.660;2022-12-18T04:37:36;19.13;;;12.43;;
13114;SDS011;6623;52.120;8.660;2022-12-18T04:40:05;18.50;;;11.90;;
13114;SDS011;6623;52.120;8.660;2022-12-18T04:42:31;20.80;;;12.73;;
13114;SDS011;6623;52.120;8.660;2022-12-18T04:45:00;19.13;;;12.33;;
13114;SDS011;6623;52.120;8.660;2022-12-18T04:47:25;19.45;;;12.18;;
13114;SDS011;6623;52.120;8.660;2022-12-18T04:50:00;18.10;;;11.60;;
13114;SDS011;6623;52.120;8.660;2022-12-18T04:52:26;18.50;;;11.82;;
13114;SDS011;6623;52.120;8.660;2022-12-18T04:55:01;17.43;;;11.77;;
13114;SDS011;6623;52.120;8.660;2022-12-18T04:57:27;20.85;;;12.35;;
13114;SDS011;6623;52.120;8.660;2022-12-18T04:59:52;17.97;;;11.37;;
13114;SDS011;6623;52.120;8.660;2022-12-18T05:02:31;17.17;;;11.65;;
13114;SDS011;6623;52.120;8.660;2022-12-18T05:07:57;18.38;;;10.75;;
13114;SDS011;6623;52.120;8.660;2022-12-18T05:10:22;16.60;;;10.20;;
13114;SDS011;6623;52.120;8.660;2022-12-18T05:12:48;14.30;;;9.03;;
13114;SDS011;6623;52.120;8.660;2022-12-18T05:15:26;12.70;;;8.57;;
13114;SDS011;6623;52.120;8.660;2022-12-18T05:17:56;12.23;;;7.80;;
13114;SDS011;6623;52.120;8.660;2022-12-18T05:20:23;13.23;;;7.53;;
13114;SDS011;6623;52.120;8.660;2022-12-18T05:22:48;11.00;;;7.40;;
13114;SDS011;6623;52.120;8.660;2022-12-18T05:25:14;9.68;;;6.47;;
13114;SDS011;6623;52.120;8.660;2022-12-18T05:27:40;11.20;;;6.80;;
13114;SDS011;6623;52.120;8.660;2022-12-18T05:30:06;10.40;;;7.13;;
13114;SDS011;6623;52.120;8.660;2022-12-18T05:32:32;11.40;;;7.28;;
13114;SDS011;6623;52.120;8.660;2022-12-18T05:34:58;9.80;;;6.23;;
13114;SDS011;6623;52.120;8.660;2022-12-18T05:37:23;11.00;;;7.20;;
13114;SDS011;6623;52.120;8.660;2022-12-18T05:39:49;10.43;;;7.03;;
13114;SDS011;6623;52.120;8.660;2022-12-18T05:42:14;10.87;;;7.10;;
13114;SDS011;6623;52.120;8.660;2022-12-18T05:44:40;12.47;;;7.17;;
13114;SDS011;6623;52.120;8.660;2022-12-18T05:47:06;10.83;;;7.03;;
13114;SDS011;6623;52.120;8.660;2022-12-18T05:49:31;11.03;;;6.20;;
13114;SDS011;6623;52.120;8.660;2022-12-18T05:51:57;10.73;;;6.90;;
13114;SDS011;6623;52.120;8.660;2022-12-18T05:54:22;11.07;;;6.47;;
13114;SDS011;6623;52.120;8.660;2022-12-18T05:56:48;9.70;;;6.80;;
13114;SDS011;6623;52.120;8.660;2022-12-18T05:59:13;8.70;;;5.97;;
13114;SDS011;6623;52.120;8.660;2022-12-18T06:01:39;9.10;;;6.70;;
13114;SDS011;6623;52.120;8.660;2022-12-18T06:04:05;10.05;;;7.07;;
13114;SDS011;6623;52.120;8.660;2022-12-18T06:06:31;11.43;;;7.60;;
13114;SDS011;6623;52.120;8.660;2022-12-18T06:08:56;10.23;;;6.90;;
13114;SDS011;6623;52.120;8.660;2022-12-18T06:11:23;10.80;;;7.40;;
13114;SDS011;6623;52.120;8.660;2022-12-18T06:13:50;11.40;;;7.53;;
13114;SDS011;6623;52.120;8.660;2022-12-18T06:16:17;11.18;;;7.70;;
13114;SDS011;6623;52.120;8.660;2022-12-18T06:18:45;11.10;;;6.93;;
13114;SDS011;6623;52.120;8.660;2022-12-18T06:21:11;10.63;;;6.95;;
13114;SDS011;6623;52.120;8.660;2022-12-18T06:23:37;10.80;;;7.23;;
13114;SDS011;6623;52.120;8.660;2022-12-18T06:26:06;10.77;;;6.83;;
13114;SDS011;6623;52.120;8.660;2022-12-18T06:28:34;8.90;;;6.40;;
13114;SDS011;6623;52.120;8.660;2022-12-18T06:30:59;13.13;;;7.60;;
13114;SDS011;6623;52.120;8.660;2022-12-18T06:33:27;10.75;;;7.20;;
13114;SDS011;6623;52.120;8.660;2022-12-18T06:35:59;12.57;;;7.75;;
13114;SDS011;6623;52.120;8.660;2022-12-18T06:38:41;10.50;;;6.90;;
13114;SDS011;6623;52.120;8.660;2022-12-18T06:41:12;9.82;;;6.70;;
13114;SDS011;6623;52.120;8.660;2022-12-18T06:43:43;11.82;;;7.05;;
13114;SDS011;6623;52.120;8.660;2022-12-18T06:46:09;10.10;;;6.87;;
13114;SDS011;6623;52.120;8.660;2022-12-18T06:48:41;11.55;;;7.28;;
13114;SDS011;6623;52.120;8.660;2022-12-18T06:51:09;12.13;;;8.23;;
13114;SDS011;6623;52.120;8.660;2022-12-18T06:53:35;16.75;;;9.30;;
13114;SDS011;6623;52.120;8.660;2022-12-18T06:56:04;15.00;;;9.80;;
13114;SDS011;6623;52.120;8.660;2022-12-18T06:58:32;16.85;;;9.95;;
13114;SDS011;6623;52.120;8.660;2022-12-18T07:01:16;12.10;;;9.05;;
13114;SDS011;6623;52.120;8.660;2022-12-18T07:03:41;16.25;;;9.70;;
13114;SDS011;6623;52.120;8.660;2022-12-18T07:09:01;15.88;;;10.38;;
13114;SDS011;6623;52.120;8.660;2022-12-18T07:11:26;18.57;;;10.93;;
13114;SDS011;6623;52.120;8.660;2022-12-18T07:13:52;18.73;;;10.57;;
13114;SDS011;6623;52.120;8.660;2022-12-18T07:16:19;15.88;;;10.15;;
13114;SDS011;6623;52.120;8.660;2022-12-18T07:18:46;26.80;;;10.45;;
13114;SDS011;6623;52.120;8.660;2022-12-18T07:21:13;16.00;;;9.60;;
13114;SDS011;6623;52.120;8.660;2022-12-18T07:23:40;12.23;;;8.05;;
13114;SDS011;6623;52.120;8.660;2022-12-18T07:26:10;13.80;;;8.23;;
13114;SDS011;6623;52.120;8.660;2022-12-18T07:28:37;11.40;;;7.82;;
13114;SDS011;6623;52.120;8.660;2022-12-18T07:31:25;12.00;;;8.38;;
13114;SDS011;6623;52.120;8.660;2022-12-18T07:34:10;11.57;;;7.85;;
13114;SDS011;6623;52.120;8.660;2022-12-18T07:36:40;18.17;;;8.48;;
13114;SDS011;6623;52.120;8.660;2022-12-18T07:39:06;12.63;;;8.50;;
13114;SDS011;6623;52.120;8.660;2022-12-18T07:41:32;13.40;;;8.40;;
13114;SDS011;6623;52.120;8.660;2022-12-18T07:43:57;12.17;;;7.77;;
13114;SDS011;6623;52.120;8.660;2022-12-18T07:46:30;11.60;;;6.88;;
13114;SDS011;6623;52.120;8.660;2022-12-18T07:48:56;10.97;;;7.13;;
13114;SDS011;6623;52.120;8.660;2022-12-18T07:51:30;9.37;;;7.00;;
13114;SDS011;6623;52.120;8.660;2022-12-18T07:53:56;11.30;;;7.07;;
13114;SDS011;6623;52.120;8.660;2022-12-18T07:56:28;9.60;;;6.07;;
13114;SDS011;6623;52.120;8.660;2022-12-18T07:58:53;11.20;;;7.28;;
13114;SDS011;6623;52.120;8.660;2022-12-18T08:01:19;9.90;;;6.78;;
13114;SDS011;6623;52.120;8.660;2022-12-18T08:03:46;10.55;;;6.63;;
13114;SDS011;6623;52.120;8.660;2022-12-18T08:06:17;10.80;;;7.37;;
13114;SDS011;6623;52.120;8.660;2022-12-18T08:08:45;10.40;;;6.68;;
13114;SDS011;6623;52.120;8.660;2022-12-18T08:11:11;10.20;;;6.77;;
13114;SDS011;6623;52.120;8.660;2022-12-18T08:13:37;11.47;;;6.67;;
13114;SDS011;6623;52.120;8.660;2022-12-18T08:16:03;9.77;;;6.60;;
13114;SDS011;6623;52.120;8.660;2022-12-18T08:18:32;9.52;;;6.93;;
13114;SDS011;6623;52.120;8.660;2022-12-18T08:21:12;10.05;;;6.10;;
13114;SDS011;6623;52.120;8.660;2022-12-18T08:23:42;10.60;;;6.75;;
13114;SDS011;6623;52.120;8.660;2022-12-18T08:26:11;12.27;;;6.60;;
13114;SDS011;6623;52.120;8.660;2022-12-18T08:28:36;10.13;;;6.60;;
13114;SDS011;6623;52.120;8.660;2022-12-18T08:31:02;9.43;;;6.53;;
13114;SDS011;6623;52.120;8.660;2022-12-18T08:33:28;8.60;;;6.63;;
13114;SDS011;6623;52.120;8.660;2022-12-18T08:35:55;7.90;;;6.20;;
13114;SDS011;6623;52.120;8.660;2022-12-18T08:41:15;9.35;;;6.68;;
13114;SDS011;6623;52.120;8.660;2022-12-18T08:43:42;8.40;;;6.05;;
13114;SDS011;6623;52.120;8.660;2022-12-18T08:46:26;9.35;;;6.40;;
13114;SDS011;6623;52.120;8.660;2022-12-18T08:48:56;8.63;;;5.75;;
13114;SDS011;6623;52.120;8.660;2022-12-18T08:51:21;9.03;;;6.23;;
13114;SDS011;6623;52.120;8.660;2022-12-18T08:53:50;9.27;;;6.47;;
13114;SDS011;6623;52.120;8.660;2022-12-18T08:56:18;9.80;;;6.43;;
13114;SDS011;6623;52.120;8.660;2022-12-18T08:58:44;9.20;;;6.13;;
13114;SDS011;6623;52.120;8.660;2022-12-18T09:01:10;10.33;;;6.00;;
13114;SDS011;6623;52.120;8.660;2022-12-18T09:03:37;10.88;;;6.72;;
13114;SDS011;6623;52.120;8.660;2022-12-18T09:06:03;10.07;;;6.60;;
13114;SDS011;6623;52.120;8.660;2022-12-18T09:08:29;10.13;;;6.18;;
13114;SDS011;6623;52.120;8.660;2022-12-18T09:10:58;12.07;;;7.00;;
13114;SDS011;6623;52.120;8.660;2022-12-18T09:13:27;8.45;;;6.22;;
13114;SDS011;6623;52.120;8.660;2022-12-18T09:15:53;8.47;;;5.73;;
13114;SDS011;6623;52.120;8.660;2022-12-18T09:18:20;8.68;;;6.20;;
13114;SDS011;6623;52.120;8.660;2022-12-18T09:20:47;8.85;;;6.13;;
13114;SDS011;6623;52.120;8.660;2022-12-18T09:23:13;8.63;;;6.20;;
13114;SDS011;6623;52.120;8.660;2022-12-18T09:25:39;11.02;;;5.95;;
13114;SDS011;6623;52.120;8.660;2022-12-18T09:28:06;9.70;;;6.55;;
13114;SDS011;6623;52.120;8.660;2022-12-18T09:30:40;8.73;;;5.80;;
13114;SDS011;6623;52.120;8.660;2022-12-18T09:33:07;8.60;;;5.30;;
13114;SDS011;6623;52.120;8.660;2022-12-18T09:35:32;9.43;;;6.00;;
13114;SDS011;6623;52.120;8.660;2022-12-18T09:38:00;8.05;;;5.97;;
13114;SDS011;6623;52.120;8.660;2022-12-18T09:40:27;7.90;;;5.17;;
13114;SDS011;6623;52.120;8.660;2022-12-18T09:43:03;8.45;;;5.43;;
13114;SDS011;6623;52.120;8.660;2022-12-18T09:45:32;7.57;;;5.13;;
13114;SDS011;6623;52.120;8.660;2022-12-18T09:48:10;8.88;;;5.82;;
13114;SDS011;6623;52.120;8.660;2022-12-18T09:51:01;7.63;;;5.00;;
13114;SDS011;6623;52.120;8.660;2022-12-18T09:53:31;6.38;;;5.43;;
13114;SDS011;6623;52.120;8.660;2022-12-18T09:56:00;8.70;;;5.47;;
13114;SDS011;6623;52.120;8.660;2022-12-18T10:01:10;6.50;;;4.63;;
13114;SDS011;6623;52.120;8.660;2022-12-18T10:03:46;6.40;;;4.65;;
13114;SDS011;6623;52.120;8.660;2022-12-18T10:06:13;6.72;;;4.95;;
13114;SDS011;6623;52.120;8.660;2022-12-18T10:08:46;6.72;;;4.70;;
13114;SDS011;6623;52.120;8.660;2022-12-18T10:11:29;6.88;;;4.82;;
13114;SDS011;6623;52.120;8.660;2022-12-18T10:27:48;6.70;;;4.38;;
13114;SDS011;6623;52.120;8.660;2022-12-18T10:30:20;6.68;;;4.43;;
13114;SDS011;6623;52.120;8.660;2022-12-18T10:32:47;6.05;;;4.75;;
13114;SDS011;6623;52.120;8.660;2022-12-18T10:35:23;6.93;;;4.80;;
13114;SDS011;6623;52.120;8.660;2022-12-18T10:37:59;7.32;;;4.63;;
13114;SDS011;6623;52.120;8.660;2022-12-18T10:40:25;4.97;;;4.05;;
13114;SDS011;6623;52.120;8.660;2022-12-18T10:43:03;5.97;;;4.45;;
13114;SDS011;6623;52.120;8.660;2022-12-18T10:45:38;5.78;;;4.10;;
13114;SDS011;6623;52.120;8.660;2022-12-18T10:48:04;7.38;;;4.40;;
13114;SDS011;6623;52.120;8.660;2022-12-18T10:50:42;5.45;;;3.90;;
13114;SDS011;6623;52.120;8.660;2022-12-18T10:53:16;13.20;;;5.05;;
13114;SDS011;6623;52.120;8.660;2022-12-18T10:55:48;8.52;;;5.07;;
13114;SDS011;6623;52.120;8.660;2022-12-18T10:58:25;6.18;;;4.38;;
13114;SDS011;6623;52.120;8.660;2022-12-18T11:03:43;8.23;;;4.55;;
13114;SDS011;6623;52.120;8.660;2022-12-18T11:06:11;6.97;;;4.85;;
13114;SDS011;6623;52.120;8.660;2022-12-18T11:08:39;6.03;;;4.82;;
13114;SDS011;6623;52.120;8.660;2022-12-18T11:11:09;10.18;;;7.70;;
13114;SDS011;6623;52.120;8.660;2022-12-18T11:14:06;6.65;;;5.07;;
13114;SDS011;6623;52.120;8.660;2022-12-18T11:16:44;6.28;;;4.55;;
13114;SDS011;6623;52.120;8.660;2022-12-18T11:21:53;8.60;;;4.65;;
13114;SDS011;6623;52.120;8.660;2022-12-18T11:27:03;6.47;;;4.63;;
13114;SDS011;6623;52.120;8.660;2022-12-18T11:29:39;10.18;;;4.63;;
13114;SDS011;6623;52.120;8.660;2022-12-18T11:32:20;7.03;;;4.45;;
13114;SDS011;6623;52.120;8.660;2022-12-18T11:38:24;6.63;;;4.40;;
13114;SDS011;6623;52.120;8.660;2022-12-18T11:41:09;5.13;;;4.10;;
13114;SDS011;6623;52.120;8.660;2022-12-18T11:43:55;6.68;;;4.80;;
13114;SDS011;6623;52.120;8.660;2022-12-18T11:46:26;6.43;;;4.53;;
13114;SDS011;6623;52.120;8.660;2022-12-18T11:49:03;7.28;;;4.38;;
13114;SDS011;6623;52.120;8.660;2022-12-18T11:51:56;6.20;;;4.47;;
13114;SDS011;6623;52.120;8.660;2022-12-18T11:54:41;7.35;;;4.80;;
13114;SDS011;6623;52.120;8.660;2022-12-18T11:57:35;7.03;;;4.70;;
13114;SDS011;6623;52.120;8.660;2022-12-18T12:00:20;6.57;;;4.55;;
13114;SDS011;6623;52.120;8.660;2022-12-18T12:02:58;7.30;;;4.45;;
13114;SDS011;6623;52.120;8.660;2022-12-18T12:19:33;7.40;;;4.80;;
13114;SDS011;6623;52.120;8.660;2022-12-18T12:22:17;5.45;;;3.90;;
13114;SDS011;6623;52.120;8.660;2022-12-18T12:24:57;6.03;;;4.22;;
13114;SDS011;6623;52.120;8.660;2022-12-18T12:33:26;4.85;;;3.47;;
13114;SDS011;6623;52.120;8.660;2022-12-18T12:38:49;6.03;;;4.60;;
13114;SDS011;6623;52.120;8.660;2022-12-18T12:41:20;4.97;;;4.07;;
13114;SDS011;6623;52.120;8.660;2022-12-18T12:44:09;8.25;;;4.60;;
13114;SDS011;6623;52.120;8.660;2022-12-18T12:46:40;6.50;;;4.28;;
13114;SDS011;6623;52.120;8.660;2022-12-18T12:49:17;5.93;;;4.47;;
13114;SDS011;6623;52.120;8.660;2022-12-18T12:51:47;5.50;;;4.10;;
13114;SDS011;6623;52.120;8.660;2022-12-18T12:54:20;7.05;;;4.38;;
13114;SDS011;6623;52.120;8.660;2022-12-18T12:57:05;6.30;;;4.03;;
13114;SDS011;6623;52.120;8.660;2022-12-18T13:00:02;5.43;;;4.55;;
13114;SDS011;6623;52.120;8.660;2022-12-18T13:05:54;6.95;;;4.20;;
13114;SDS011;6623;52.120;8.660;2022-12-18T13:08:26;6.07;;;4.47;;
13114;SDS011;6623;52.120;8.660;2022-12-18T13:10:57;6.45;;;4.22;;
13114;SDS011;6623;52.120;8.660;2022-12-18T13:13:52;5.95;;;4.03;;
13114;SDS011;6623;52.120;8.660;2022-12-18T13:16:21;5.97;;;4.22;;
13114;SDS011;6623;52.120;8.660;2022-12-18T13:18:56;9.23;;;4.45;;
13114;SDS011;6623;52.120;8.660;2022-12-18T13:21:31;5.95;;;4.07;;
13114;SDS011;6623;52.120;8.660;2022-12-18T13:24:14;6.40;;;4.20;;
13114;SDS011;6623;52.120;8.660;2022-12-18T13:26:55;5.20;;;3.90;;
13114;SDS011;6623;52.120;8.660;2022-12-18T13:29:40;7.32;;;4.30;;
13114;SDS011;6623;52.120;8.660;2022-12-18T13:32:18;6.95;;;4.47;;
13114;SDS011;6623;52.120;8.660;2022-12-18T13:35:07;4.80;;;3.78;;
13114;SDS011;6623;52.120;8.660;2022-12-18T13:37:58;6.57;;;4.30;;
13114;SDS011;6623;52.120;8.660;2022-12-18T13:41:14;9.03;;;4.47;;
13114;SDS011;6623;52.120;8.660;2022-12-18T13:45:45;6.57;;;3.88;;
13114;SDS011;6623;52.120;8.660;2022-12-18T13:48:38;4.43;;;3.70;;
13114;SDS011;6623;52.120;8.660;2022-12-18T13:51:07;5.90;;;3.92;;
13114;SDS011;6623;52.120;8.660;2022-12-18T13:56:08;5.75;;;4.25;;
13114;SDS011;6623;52.120;8.660;2022-12-18T13:58:33;5.37;;;4.20;;
13114;SDS011;6623;52.120;8.660;2022-12-18T14:00:59;5.83;;;4.13;;
13114;SDS011;6623;52.120;8.660;2022-12-18T14:03:27;4.75;;;3.70;;
13114;SDS011;6623;52.120;8.660;2022-12-18T14:06:00;5.78;;;4.15;;
13114;SDS011;6623;52.120;8.660;2022-12-18T14:08:34;5.22;;;4.15;;
13114;SDS011;6623;52.120;8.660;2022-12-18T14:11:04;4.88;;;3.60;;
13114;SDS011;6623;52.120;8.660;2022-12-18T14:13:32;6.45;;;3.95;;
13114;SDS011;6623;52.120;8.660;2022-12-18T14:16:03;5.63;;;3.85;;
13114;SDS011;6623;52.120;8.660;2022-12-18T14:18:46;5.35;;;3.95;;
13114;SDS011;6623;52.120;8.660;2022-12-18T14:21:18;4.97;;;3.75;;
13114;SDS011;6623;52.120;8.660;2022-12-18T14:23:47;5.82;;;3.75;;
13114;SDS011;6623;52.120;8.660;2022-12-18T14:26:29;6.83;;;4.63;;
13114;SDS011;6623;52.120;8.660;2022-12-18T14:34:43;6.25;;;3.85;;
13114;SDS011;6623;52.120;8.660;2022-12-18T14:37:26;6.00;;;4.22;;
13114;SDS011;6623;52.120;8.660;2022-12-18T14:40:16;5.97;;;4.38;;
13114;SDS011;6623;52.120;8.660;2022-12-18T14:42:42;5.30;;;4.20;;
13114;SDS011;6623;52.120;8.660;2022-12-18T14:47:58;4.38;;;3.53;;
13114;SDS011;6623;52.120;8.660;2022-12-18T14:50:31;6.50;;;3.88;;
13114;SDS011;6623;52.120;8.660;2022-12-18T14:59:46;6.47;;;4.50;;
13114;SDS011;6623;52.120;8.660;2022-12-18T15:02:18;5.90;;;4.18;;
13114;SDS011;6623;52.120;8.660;2022-12-18T15:04:47;6.13;;;4.22;;
13114;SDS011;6623;52.120;8.660;2022-12-18T15:07:24;7.18;;;3.80;;
13114;SDS011;6623;52.120;8.660;2022-12-18T15:12:39;5.55;;;4.35;;
13114;SDS011;6623;52.120;8.660;2022-12-18T15:23:26;4.95;;;3.95;;
13114;SDS011;6623;52.120;8.660;2022-12-18T15:25:56;5.35;;;4.07;;
13114;SDS011;6623;52.120;8.660;2022-12-18T15:28:25;6.22;;;4.65;;
13114;SDS011;6623;52.120;8.660;2022-12-18T15:31:06;7.95;;;4.78;;
13114;SDS011;6623;52.120;8.660;2022-12-18T15:33:39;5.55;;;4.38;;
13114;SDS011;6623;52.120;8.660;2022-12-18T15:36:14;6.95;;;5.00;;
13114;SDS011;6623;52.120;8.660;2022-12-18T15:38:41;5.28;;;4.15;;
13114;SDS011;6623;52.120;8.660;2022-12-18T15:41:14;6.63;;;5.05;;
13114;SDS011;6623;52.120;8.660;2022-12-18T15:43:40;5.70;;;4.10;;
13114;SDS011;6623;52.120;8.660;2022-12-18T15:46:13;6.10;;;4.57;;
13114;SDS011;6623;52.120;8.660;2022-12-18T15:48:41;5.03;;;3.95;;
13114;SDS011;6623;52.120;8.660;2022-12-18T15:51:15;6.55;;;4.65;;
13114;SDS011;6623;52.120;8.660;2022-12-18T15:53:53;6.45;;;4.38;;
13114;SDS011;6623;52.120;8.660;2022-12-18T15:56:21;6.55;;;4.75;;
13114;SDS011;6623;52.120;8.660;2022-12-18T15:59:10;6.97;;;4.78;;
13114;SDS011;6623;52.120;8.660;2022-12-18T16:01:38;6.75;;;4.72;;
13114;SDS011;6623;52.120;8.660;2022-12-18T16:04:05;5.78;;;4.65;;
13114;SDS011;6623;52.120;8.660;2022-12-18T16:06:31;6.17;;;5.07;;
13114;SDS011;6623;52.120;8.660;2022-12-18T16:08:57;7.23;;;4.97;;
13114;SDS011;6623;52.120;8.660;2022-12-18T16:11:28;7.13;;;4.90;;
13114;SDS011;6623;52.120;8.660;2022-12-18T16:16:49;6.40;;;4.70;;
13114;SDS011;6623;52.120;8.660;2022-12-18T16:19:19;6.30;;;5.00;;
13114;SDS011;6623;52.120;8.660;2022-12-18T16:21:46;6.50;;;4.78;;
13114;SDS011;6623;52.120;8.660;2022-12-18T16:24:17;5.97;;;4.80;;
13114;SDS011;6623;52.120;8.660;2022-12-18T16:26:43;6.10;;;4.77;;
13114;SDS011;6623;52.120;8.660;2022-12-18T16:29:09;7.07;;;5.23;;
13114;SDS011;6623;52.120;8.660;2022-12-18T16:31:35;7.17;;;4.83;;
13114;SDS011;6623;52.120;8.660;2022-12-18T16:36:47;7.40;;;5.07;;
13114;SDS011;6623;52.120;8.660;2022-12-18T16:39:13;7.15;;;5.00;;
13114;SDS011;6623;52.120;8.660;2022-12-18T16:41:39;6.40;;;5.10;;
13114;SDS011;6623;52.120;8.660;2022-12-18T16:44:05;7.83;;;5.27;;
13114;SDS011;6623;52.120;8.660;2022-12-18T16:46:30;6.97;;;4.67;;
13114;SDS011;6623;52.120;8.660;2022-12-18T16:48:59;7.47;;;5.27;;
13114;SDS011;6623;52.120;8.660;2022-12-18T16:51:26;8.00;;;5.35;;
13114;SDS011;6623;52.120;8.660;2022-12-18T16:53:52;8.60;;;5.13;;
13114;SDS011;6623;52.120;8.660;2022-12-18T16:56:19;8.33;;;5.70;;
13114;SDS011;6623;52.120;8.660;2022-12-18T16:58:51;7.88;;;5.07;;
13114;SDS011;6623;52.120;8.660;2022-12-18T17:01:21;8.43;;;5.90;;
13114;SDS011;6623;52.120;8.660;2022-12-18T17:03:54;7.73;;;5.80;;
13114;SDS011;6623;52.120;8.660;2022-12-18T17:06:28;6.70;;;5.50;;
13114;SDS011;6623;52.120;8.660;2022-12-18T17:08:56;7.57;;;5.70;;
13114;SDS011;6623;52.120;8.660;2022-12-18T17:11:24;8.07;;;5.32;;
13114;SDS011;6623;52.120;8.660;2022-12-18T17:13:50;8.40;;;5.73;;
13114;SDS011;6623;52.120;8.660;2022-12-18T17:16:16;7.57;;;5.43;;
13114;SDS011;6623;52.120;8.660;2022-12-18T17:18:42;8.53;;;6.17;;
13114;SDS011;6623;52.120;8.660;2022-12-18T17:21:08;9.47;;;5.60;;
13114;SDS011;6623;52.120;8.660;2022-12-18T17:23:35;11.73;;;6.10;;